createdAt,value
2023-05-25T00:00:39.934Z,100219.00
2023-05-25T00:02:17.495Z,100218.00
2023-05-25T00:03:52.572Z,100213.00
2023-05-25T00:05:27.584Z,100217.00
2023-05-25T00:07:00.731Z,100209.00
2023-05-25T00:08:33.963Z,100208.00
2023-05-25T00:10:09.653Z,100210.00
2023-05-25T00:11:43.399Z,100217.00
2023-05-25T00:13:16.774Z,100209.00
2023-05-25T00:14:50.361Z,100214.00
2023-05-25T00:16:25.320Z,100218.00
2023-05-25T00:17:58.487Z,100218.00
2023-05-25T00:19:32.343Z,100211.00
2023-05-25T00:21:07.183Z,100212.00
2023-05-25T00:22:44.890Z,100210.00
2023-05-25T00:24:18.331Z,100217.00
2023-05-25T00:25:51.734Z,100222.00
2023-05-25T00:27:25.334Z,100217.00
2023-05-25T00:29:00.288Z,100216.00
2023-05-25T00:30:32.445Z,100218.00
2023-05-25T00:32:08.520Z,100212.00
2023-05-25T00:33:42.247Z,100214.00
2023-05-25T00:35:15.532Z,100215.00
2023-05-25T00:36:49.150Z,100218.00
2023-05-25T00:38:22.420Z,100225.00
2023-05-25T00:39:55.785Z,100210.00
2023-05-25T00:41:31.561Z,100218.00
2023-05-25T00:43:05.107Z,100210.00
2023-05-25T00:44:37.445Z,100210.00
2023-05-25T00:46:11.976Z,100208.00
2023-05-25T00:47:52.293Z,100212.00
2023-05-25T00:49:25.080Z,100212.00
2023-05-25T00:51:00.076Z,100211.00
2023-05-25T00:52:33.447Z,100205.00
2023-05-25T00:54:07.337Z,100204.00
2023-05-25T00:55:45.775Z,100205.00
2023-05-25T00:57:23.326Z,100203.00
2023-05-25T00:58:59.051Z,100216.00
2023-05-25T01:00:35.859Z,100209.00
2023-05-25T01:02:11.976Z,100212.00
2023-05-25T01:03:53.571Z,100214.00
2023-05-25T01:05:29.497Z,100216.00
2023-05-25T01:07:05.037Z,100215.00
2023-05-25T01:08:41.523Z,100216.00
2023-05-25T01:10:17.919Z,100213.00
2023-05-25T01:11:53.915Z,100211.00
2023-05-25T01:13:29.401Z,100216.00
2023-05-25T01:15:06.419Z,100217.00
2023-05-25T01:16:41.585Z,100206.00
2023-05-25T01:18:16.799Z,100217.00
2023-05-25T01:20:08.975Z,100207.00
2023-05-25T01:21:55.695Z,100215.00
2023-05-25T01:23:35.850Z,100219.00
2023-05-25T01:25:15.722Z,100223.00
2023-05-25T01:26:59.130Z,100220.00
2023-05-25T01:28:41.059Z,100222.00
2023-05-25T01:30:18.223Z,100207.00
2023-05-25T01:31:53.884Z,100221.00
2023-05-25T01:33:29.890Z,100215.00
2023-05-25T01:35:05.043Z,100224.00
2023-05-25T01:36:38.459Z,100217.00
2023-05-25T01:38:13.349Z,100209.00
2023-05-25T01:39:46.760Z,100231.00
2023-05-25T01:41:19.079Z,100219.00
2023-05-25T01:42:52.825Z,100203.00
2023-05-25T01:44:27.539Z,100209.00
2023-05-25T01:46:16.894Z,100213.00
2023-05-25T01:48:12.858Z,100211.00
2023-05-25T01:49:59.088Z,100214.00
2023-05-25T01:51:40.229Z,100215.00
2023-05-25T01:53:23.890Z,100219.00
2023-05-25T01:55:06.317Z,100221.00
2023-05-25T01:56:43.653Z,100210.00
2023-05-25T01:58:20.886Z,100218.00
2023-05-25T02:00:00.240Z,100206.00
2023-05-25T02:01:36.446Z,100214.00
2023-05-25T02:03:10.660Z,100217.00
2023-05-25T02:04:44.528Z,100212.00
2023-05-25T02:06:18.166Z,100214.00
2023-05-25T02:07:51.371Z,100207.00
2023-05-25T02:09:26.140Z,100216.00
2023-05-25T02:10:59.554Z,100217.00
2023-05-25T02:12:32.071Z,100217.00
2023-05-25T02:14:05.588Z,100224.00
2023-05-25T02:15:37.969Z,100220.00
2023-05-25T02:17:13.084Z,100224.00
2023-05-25T02:18:45.926Z,100220.00
2023-05-25T02:20:19.278Z,100200.00
2023-05-25T02:21:56.573Z,100230.00
2023-05-25T02:23:30.189Z,100213.00
2023-05-25T02:25:05.692Z,100222.00
2023-05-25T02:26:40.540Z,100221.00
2023-05-25T02:28:15.767Z,100230.00
2023-05-25T02:29:49.138Z,100223.00
2023-05-25T02:31:22.536Z,100219.00
2023-05-25T02:32:56.543Z,100213.00
2023-05-25T02:34:32.826Z,100231.00
2023-05-25T02:36:06.915Z,100218.00
2023-05-25T02:37:40.805Z,100229.00
2023-05-25T02:39:14.768Z,100201.00
2023-05-25T02:40:49.869Z,100215.00
2023-05-25T02:42:23.311Z,100220.00
2023-05-25T02:43:56.753Z,100194.00
2023-05-25T02:45:30.111Z,100218.00
2023-05-25T02:47:03.892Z,100214.00
2023-05-25T02:48:36.842Z,100213.00
2023-05-25T02:50:11.327Z,100220.00
2023-05-25T02:51:49.952Z,100222.00
2023-05-25T02:53:22.577Z,100213.00
2023-05-25T02:54:55.964Z,100215.00
2023-05-25T02:56:37.888Z,100211.00
2023-05-25T02:58:11.786Z,100217.00
2023-05-25T03:00:11.700Z,100228.00
2023-05-25T03:01:44.126Z,100224.00
2023-05-25T03:03:17.653Z,100207.00
2023-05-25T03:04:53.592Z,100220.00
2023-05-25T03:06:27.322Z,100225.00
2023-05-25T03:08:08.384Z,100223.00
2023-05-25T03:09:42.040Z,100218.00
2023-05-25T03:11:15.938Z,100224.00
2023-05-25T03:12:52.775Z,100215.00
2023-05-25T03:14:26.016Z,100215.00
2023-05-25T03:16:02.824Z,100222.00
2023-05-25T03:17:36.644Z,100228.00
2023-05-25T03:19:10.923Z,100234.00
2023-05-25T03:20:44.237Z,100243.00
2023-05-25T03:22:17.684Z,100240.00
2023-05-25T03:23:52.724Z,100244.00
2023-05-25T03:25:26.234Z,100233.00
2023-05-25T03:26:59.453Z,100235.00
2023-05-25T03:28:34.333Z,100255.00
2023-05-25T03:30:09.972Z,100249.00
2023-05-25T03:31:43.362Z,100261.00
2023-05-25T03:33:16.704Z,100234.00
2023-05-25T03:34:52.483Z,100252.00
2023-05-25T03:36:27.337Z,100264.00
2023-05-25T03:37:59.521Z,100270.00
2023-05-25T03:39:33.184Z,100260.00
2023-05-25T03:41:05.830Z,100249.00
2023-05-25T03:42:39.630Z,100254.00
2023-05-25T03:44:15.133Z,100247.00
2023-05-25T03:45:49.642Z,100250.00
2023-05-25T03:47:23.697Z,100260.00
2023-05-25T03:48:57.368Z,100258.00
2023-05-25T03:50:30.772Z,100252.00
2023-05-25T03:52:06.112Z,100256.00
2023-05-25T03:53:39.640Z,100260.00
2023-05-25T03:55:15.770Z,100255.00
2023-05-25T03:56:49.106Z,100255.00
2023-05-25T03:58:22.605Z,100258.00
2023-05-25T03:59:57.296Z,100243.00
2023-05-25T04:01:31.091Z,100252.00
2023-05-25T04:03:04.794Z,100249.00
2023-05-25T04:04:44.092Z,100263.00
2023-05-25T04:06:19.423Z,100252.00
2023-05-25T04:07:52.840Z,100258.00
2023-05-25T04:09:26.242Z,100252.00
2023-05-25T04:10:59.710Z,100265.00
2023-05-25T04:12:36.474Z,100260.00
2023-05-25T04:14:11.809Z,100260.00
2023-05-25T04:15:48.588Z,100273.00
2023-05-25T04:17:25.464Z,100265.00
2023-05-25T04:18:59.661Z,100273.00
2023-05-25T04:20:33.110Z,100261.00
2023-05-25T04:22:06.913Z,100267.00
2023-05-25T04:23:40.214Z,100276.00
2023-05-25T04:25:14.202Z,100277.00
2023-05-25T04:26:47.512Z,100269.00
2023-05-25T04:28:20.997Z,100276.00
2023-05-25T04:30:02.932Z,100255.00
2023-05-25T04:32:03.735Z,100279.00
2023-05-25T04:33:49.526Z,100282.00
2023-05-25T04:35:37.734Z,100277.00
2023-05-25T04:37:11.494Z,100297.00
2023-05-25T04:38:48.086Z,100281.00
2023-05-25T04:40:21.871Z,100278.00
2023-05-25T04:41:57.183Z,100288.00
2023-05-25T04:43:30.830Z,100294.00
2023-05-25T04:45:06.627Z,100288.00
2023-05-25T04:46:40.799Z,100282.00
2023-05-25T04:48:20.845Z,100285.00
2023-05-25T04:49:54.793Z,100286.00
2023-05-25T04:51:29.561Z,100292.00
2023-05-25T04:53:03.162Z,100288.00
2023-05-25T04:54:36.524Z,100304.00
2023-05-25T04:56:09.837Z,100296.00
2023-05-25T04:57:43.286Z,100286.00
2023-05-25T04:59:16.762Z,100275.00
2023-05-25T05:00:52.494Z,100299.00
2023-05-25T05:02:26.540Z,100300.00
2023-05-25T05:04:01.973Z,100300.00
2023-05-25T05:05:37.513Z,100296.00
2023-05-25T05:07:14.736Z,100304.00
2023-05-25T05:08:48.642Z,100308.00
2023-05-25T05:10:22.387Z,100302.00
2023-05-25T05:12:00.915Z,100299.00
2023-05-25T05:13:35.386Z,100303.00
2023-05-25T05:15:10.401Z,100308.00
2023-05-25T05:16:45.484Z,100305.00
2023-05-25T05:18:18.887Z,100301.00
2023-05-25T05:19:53.624Z,100319.00
2023-05-25T05:21:26.940Z,100304.00
2023-05-25T05:23:00.381Z,100313.00
2023-05-25T05:24:34.134Z,100323.00
2023-05-25T05:26:10.902Z,100316.00
2023-05-25T05:27:44.353Z,100324.00
2023-05-25T05:29:34.171Z,100318.00
2023-05-25T05:31:08.142Z,100332.00
2023-05-25T05:32:41.681Z,100321.00
2023-05-25T05:34:16.684Z,100335.00
2023-05-25T05:35:52.381Z,100318.00
2023-05-25T05:37:27.969Z,100320.00
2023-05-25T05:39:01.296Z,100322.00
2023-05-25T05:40:35.349Z,100333.00
2023-05-25T05:42:09.474Z,100324.00
2023-05-25T05:43:44.062Z,100339.00
2023-05-25T05:45:17.434Z,100338.00
2023-05-25T05:46:50.822Z,100341.00
2023-05-25T05:48:24.180Z,100335.00
2023-05-25T05:49:57.366Z,100335.00
2023-05-25T05:51:32.263Z,100335.00
2023-05-25T05:53:06.118Z,100335.00
2023-05-25T05:54:39.389Z,100335.00
2023-05-25T05:56:20.604Z,100335.00
2023-05-25T05:57:54.447Z,100335.00
2023-05-25T05:59:28.204Z,100325.00
2023-05-25T06:01:03.291Z,100332.00
2023-05-25T06:02:38.082Z,100331.00
2023-05-25T06:04:13.438Z,100332.00
2023-05-25T06:05:46.932Z,100335.00
2023-05-25T06:07:22.370Z,100345.00
2023-05-25T06:08:56.358Z,100335.00
2023-05-25T06:10:31.185Z,100331.00
2023-05-25T06:12:06.163Z,100335.00
2023-05-25T06:13:40.614Z,100348.00
2023-05-25T06:15:14.096Z,100331.00
2023-05-25T06:16:47.565Z,100336.00
2023-05-25T06:18:21.005Z,100337.00
2023-05-25T06:19:54.402Z,100334.00
2023-05-25T06:21:27.796Z,100345.00
2023-05-25T06:23:02.671Z,100332.00
2023-05-25T06:24:35.958Z,100353.00
2023-05-25T06:26:09.304Z,100343.00
2023-05-25T06:27:47.662Z,100339.00
2023-05-25T06:29:21.422Z,100343.00
2023-05-25T06:30:54.849Z,100353.00
2023-05-25T06:32:28.754Z,100346.00
2023-05-25T06:34:02.176Z,100356.00
2023-05-25T06:35:35.667Z,100345.00
2023-05-25T06:37:09.123Z,100349.00
2023-05-25T06:38:44.580Z,100349.00
2023-05-25T06:40:18.024Z,100338.00
2023-05-25T06:41:52.282Z,100355.00
2023-05-25T06:43:34.715Z,100347.00
2023-05-25T06:45:26.638Z,100356.00
2023-05-25T06:47:00.024Z,100358.00
2023-05-25T06:48:33.812Z,100357.00
2023-05-25T06:50:09.831Z,100346.00
2023-05-25T06:51:43.284Z,100326.00
2023-05-25T06:53:17.383Z,100354.00
2023-05-25T06:54:52.199Z,100346.00
2023-05-25T06:56:25.589Z,100355.00
2023-05-25T06:57:58.929Z,100354.00
2023-05-25T06:59:32.309Z,100369.00
2023-05-25T07:01:06.118Z,100376.00
2023-05-25T07:02:39.712Z,100360.00
2023-05-25T07:04:13.261Z,100365.00
2023-05-25T07:05:46.651Z,100360.00
2023-05-25T07:07:20.465Z,100367.00
2023-05-25T07:08:55.187Z,100366.00
2023-05-25T07:10:30.078Z,100364.00
2023-05-25T07:12:03.548Z,100366.00
2023-05-25T07:13:36.917Z,100375.00
2023-05-25T07:15:13.303Z,100371.00
2023-05-25T07:16:46.657Z,100381.00
2023-05-25T07:18:20.235Z,100381.00
2023-05-25T07:19:53.813Z,100374.00
2023-05-25T07:21:27.249Z,100381.00
2023-05-25T07:23:00.768Z,100391.00
2023-05-25T07:24:34.070Z,100376.00
2023-05-25T07:26:09.374Z,100383.00
2023-05-25T07:27:43.654Z,100382.00
2023-05-25T07:29:17.392Z,100384.00
2023-05-25T07:30:51.076Z,100382.00
2023-05-25T07:32:24.422Z,100384.00
2023-05-25T07:34:15.161Z,100385.00
2023-05-25T07:35:48.327Z,100388.00
2023-05-25T07:37:21.709Z,100386.00
2023-05-25T07:38:55.139Z,100385.00
2023-05-25T07:40:29.199Z,100395.00
2023-05-25T07:42:03.956Z,100385.00
2023-05-25T07:43:37.711Z,100389.00
2023-05-25T07:45:12.593Z,100390.00
2023-05-25T07:46:46.183Z,100388.00
2023-05-25T07:48:20.439Z,100377.00
2023-05-25T07:49:54.060Z,100394.00
2023-05-25T07:51:31.160Z,100384.00
2023-05-25T07:53:04.490Z,100390.00
2023-05-25T07:54:40.219Z,100387.00
2023-05-25T07:56:13.654Z,100390.00
2023-05-25T07:57:48.305Z,100381.00
2023-05-25T07:59:21.739Z,100395.00
2023-05-25T08:00:55.554Z,100381.00
2023-05-25T08:02:29.050Z,100397.00
2023-05-25T08:04:02.597Z,100383.00
2023-05-25T08:05:36.034Z,100375.00
2023-05-25T08:07:09.492Z,100377.00
2023-05-25T08:08:44.925Z,100380.00
2023-05-25T08:10:18.879Z,100380.00
2023-05-25T08:11:52.393Z,100378.00
2023-05-25T08:13:31.568Z,100375.00
2023-05-25T08:15:05.989Z,100395.00
2023-05-25T08:16:39.646Z,100378.00
2023-05-25T08:18:12.949Z,100382.00
2023-05-25T08:19:46.530Z,100374.00
2023-05-25T08:21:20.410Z,100390.00
2023-05-25T08:22:54.457Z,100393.00
2023-05-25T08:24:27.782Z,100389.00
2023-05-25T08:26:01.548Z,100399.00
2023-05-25T08:27:36.033Z,100395.00
2023-05-25T08:29:11.673Z,100399.00
2023-05-25T08:30:47.406Z,100400.00
2023-05-25T08:32:20.884Z,100408.00
2023-05-25T08:33:54.292Z,100404.00
2023-05-25T08:35:27.704Z,100409.00
2023-05-25T08:37:01.119Z,100407.00
2023-05-25T08:38:34.848Z,100406.00
2023-05-25T08:40:15.371Z,100411.00
2023-05-25T08:41:51.260Z,100407.00
2023-05-25T08:43:24.584Z,100412.00
2023-05-25T08:44:59.828Z,100409.00
2023-05-25T08:46:33.835Z,100415.00
2023-05-25T08:48:26.993Z,100426.00
2023-05-25T08:50:06.938Z,100426.00
2023-05-25T08:51:44.493Z,100421.00
2023-05-25T08:53:20.285Z,100425.00
2023-05-25T08:55:00.098Z,100425.00
2023-05-25T08:56:41.654Z,100419.00
2023-05-25T08:58:21.800Z,100419.00
2023-05-25T09:00:09.668Z,100418.00
2023-05-25T09:01:49.304Z,100419.00
2023-05-25T09:03:25.469Z,100419.00
2023-05-25T09:05:01.667Z,100422.00
2023-05-25T09:06:38.514Z,100417.00
2023-05-25T09:08:12.552Z,100407.00
2023-05-25T09:09:49.050Z,100419.00
2023-05-25T09:11:36.567Z,100425.00
2023-05-25T09:13:21.765Z,100413.00
2023-05-25T09:14:56.456Z,100420.00
2023-05-25T09:16:33.518Z,100424.00
2023-05-25T09:18:07.230Z,100420.00
2023-05-25T09:19:40.827Z,100420.00
2023-05-25T09:21:14.146Z,100424.00
2023-05-25T09:22:49.074Z,100423.00
2023-05-25T09:24:23.933Z,100431.00
2023-05-25T09:25:59.471Z,100419.00
2023-05-25T09:27:37.627Z,100429.00
2023-05-25T09:29:14.206Z,100429.00
2023-05-25T09:30:47.691Z,100434.00
2023-05-25T09:32:24.374Z,100437.00
2023-05-25T09:34:00.094Z,100418.00
2023-05-25T09:35:49.207Z,100429.00
2023-05-25T09:37:22.910Z,100433.00
2023-05-25T09:38:57.315Z,100438.00
2023-05-25T09:40:34.082Z,100439.00
2023-05-25T09:42:07.912Z,100431.00
2023-05-25T09:43:44.991Z,100433.00
2023-05-25T09:45:24.672Z,100440.00
2023-05-25T09:46:57.866Z,100443.00
2023-05-25T09:48:31.556Z,100431.00
2023-05-25T09:50:06.240Z,100432.00
2023-05-25T09:51:41.390Z,100445.00
2023-05-25T09:53:14.990Z,100441.00
2023-05-25T09:54:49.822Z,100448.00
2023-05-25T09:56:23.809Z,100443.00
2023-05-25T09:57:57.871Z,100440.00
2023-05-25T09:59:31.800Z,100451.00
2023-05-25T10:01:05.563Z,100450.00
2023-05-25T10:02:38.988Z,100455.00
2023-05-25T10:04:12.225Z,100452.00
2023-05-25T10:05:46.766Z,100454.00
2023-05-25T10:07:21.918Z,100460.00
2023-05-25T10:08:59.058Z,100442.00
2023-05-25T10:10:33.287Z,100443.00
2023-05-25T10:12:08.170Z,100459.00
2023-05-25T10:13:42.999Z,100452.00
2023-05-25T10:15:18.127Z,100449.00
2023-05-25T10:16:57.528Z,100458.00
2023-05-25T10:18:40.882Z,100458.00
2023-05-25T10:20:16.032Z,100463.00
2023-05-25T10:21:59.562Z,100453.00
2023-05-25T10:23:41.801Z,100455.00
2023-05-25T10:25:26.821Z,100461.00
2023-05-25T10:27:14.696Z,100464.00
2023-05-25T10:28:53.010Z,100465.00
2023-05-25T10:30:28.032Z,100463.00
2023-05-25T10:32:01.998Z,100453.00
2023-05-25T10:33:35.220Z,100454.00
2023-05-25T10:35:11.019Z,100462.00
2023-05-25T10:36:44.464Z,100468.00
2023-05-25T10:38:19.781Z,100469.00
2023-05-25T10:39:57.622Z,100463.00
2023-05-25T10:41:30.816Z,100472.00
2023-05-25T10:43:05.598Z,100476.00
2023-05-25T10:44:39.624Z,100476.00
2023-05-25T10:46:14.970Z,100468.00
2023-05-25T10:47:48.726Z,100475.00
2023-05-25T10:49:33.281Z,100465.00
2023-05-25T10:51:09.305Z,100474.00
2023-05-25T10:52:44.147Z,100471.00
2023-05-25T10:54:19.002Z,100477.00
2023-05-25T10:56:05.320Z,100480.00
2023-05-25T10:57:38.414Z,100475.00
2023-05-25T10:59:14.458Z,100472.00
2023-05-25T11:01:00.842Z,100476.00
2023-05-25T11:02:53.548Z,100483.00
2023-05-25T11:04:27.271Z,100475.00
2023-05-25T11:06:00.432Z,100475.00
2023-05-25T11:07:52.530Z,100480.00
2023-05-25T11:09:27.065Z,100481.00
2023-05-25T11:11:00.619Z,100486.00
2023-05-25T11:12:35.083Z,100483.00
2023-05-25T11:14:22.260Z,100477.00
2023-05-25T11:16:18.654Z,100484.00
2023-05-25T11:18:02.408Z,100484.00
2023-05-25T11:19:44.384Z,100481.00
2023-05-25T11:21:23.790Z,100476.00
2023-05-25T11:22:59.748Z,100480.00
2023-05-25T11:24:33.346Z,100484.00
2023-05-25T11:26:08.099Z,100478.00
2023-05-25T11:27:47.515Z,100473.00
2023-05-25T11:29:22.377Z,100476.00
2023-05-25T11:30:56.591Z,100476.00
2023-05-25T11:32:30.630Z,100471.00
2023-05-25T11:34:06.047Z,100473.00
2023-05-25T11:35:39.163Z,100470.00
2023-05-25T11:37:12.920Z,100467.00
2023-05-25T11:38:56.262Z,100460.00
2023-05-25T11:40:39.482Z,100470.00
2023-05-25T11:42:16.571Z,100458.00
2023-05-25T11:43:53.334Z,100458.00
2023-05-25T11:45:29.773Z,100464.00
2023-05-25T11:47:08.406Z,100449.00
2023-05-25T11:48:45.998Z,100452.00
2023-05-25T11:50:19.472Z,100459.00
2023-05-25T11:51:52.206Z,100452.00
2023-05-25T11:53:25.620Z,100450.00
2023-05-25T11:54:58.925Z,100453.00
2023-05-25T11:56:35.929Z,100450.00
2023-05-25T11:58:09.413Z,100454.00
2023-05-25T11:59:50.194Z,100456.00
2023-05-25T12:01:25.498Z,100458.00
2023-05-25T12:02:58.734Z,100452.00
2023-05-25T12:04:35.079Z,100453.00
2023-05-25T12:06:08.779Z,100450.00
2023-05-25T12:07:47.012Z,100454.00
2023-05-25T12:09:23.862Z,100451.00
2023-05-25T12:10:57.049Z,100450.00
2023-05-25T12:12:30.576Z,100457.00
2023-05-25T12:14:07.423Z,100461.00
2023-05-25T12:15:44.308Z,100447.00
2023-05-25T12:17:19.475Z,100451.00
2023-05-25T12:18:54.342Z,100436.00
2023-05-25T12:20:28.359Z,100443.00
2023-05-25T12:22:01.755Z,100449.00
2023-05-25T12:23:35.872Z,100445.00
2023-05-25T12:25:11.193Z,100435.00
2023-05-25T12:27:00.936Z,100431.00
2023-05-25T12:28:34.222Z,100430.00
2023-05-25T12:30:16.893Z,100434.00
2023-05-25T12:31:51.690Z,100438.00
2023-05-25T12:33:24.685Z,100438.00
2023-05-25T12:35:08.013Z,100429.00
2023-05-25T12:37:01.452Z,100430.00
2023-05-25T12:38:34.651Z,100425.00
2023-05-25T12:43:21.404Z,100422.00
2023-05-25T12:45:01.007Z,100426.00
2023-05-25T12:46:34.304Z,100433.00
2023-05-25T12:48:09.374Z,100422.00
2023-05-25T12:49:44.639Z,100427.00
2023-05-25T12:51:18.223Z,100434.00
2023-05-25T12:52:51.669Z,100440.00
2023-05-25T12:54:45.377Z,100439.00
2023-05-25T12:56:18.993Z,100433.00
2023-05-25T12:57:53.246Z,100430.00
2023-05-25T12:59:28.244Z,100432.00
2023-05-25T13:01:02.613Z,100420.00
2023-05-25T13:02:36.375Z,100428.00
2023-05-25T13:04:11.859Z,100424.00
2023-05-25T13:05:46.452Z,100434.00
2023-05-25T13:07:22.675Z,100425.00
2023-05-25T13:08:55.235Z,100416.00
2023-05-25T13:10:30.712Z,100422.00
2023-05-25T13:12:04.540Z,100424.00
2023-05-25T13:13:38.158Z,100421.00
2023-05-25T13:15:12.693Z,100428.00
2023-05-25T13:16:46.293Z,100425.00
2023-05-25T13:18:20.020Z,100419.00
2023-05-25T13:19:54.818Z,100406.00
2023-05-25T13:21:29.301Z,100411.00
2023-05-25T13:23:03.217Z,100414.00
2023-05-25T13:24:36.857Z,100413.00
2023-05-25T13:26:10.642Z,100422.00
2023-05-25T13:27:46.627Z,100416.00
2023-05-25T13:29:20.316Z,100409.00
2023-05-25T13:30:54.015Z,100400.00
2023-05-25T13:32:27.623Z,100402.00
2023-05-25T13:34:01.460Z,100410.00
2023-05-25T13:35:45.570Z,100405.00
2023-05-25T13:37:18.982Z,100403.00
2023-05-25T13:38:52.483Z,100401.00
2023-05-25T13:40:25.848Z,100408.00
2023-05-25T13:41:59.597Z,100400.00
2023-05-25T13:43:33.052Z,100394.00
2023-05-25T13:45:07.744Z,100393.00
2023-05-25T13:46:41.433Z,100398.00
2023-05-25T13:48:15.104Z,100401.00
2023-05-25T13:49:48.720Z,100407.00
2023-05-25T13:51:23.592Z,100400.00
2023-05-25T13:52:56.988Z,100389.00
2023-05-25T13:54:30.453Z,100404.00
2023-05-25T13:56:03.935Z,100401.00
2023-05-25T13:57:37.690Z,100390.00
2023-05-25T13:59:11.364Z,100393.00
2023-05-25T14:00:45.133Z,100397.00
2023-05-25T14:02:18.913Z,100390.00
2023-05-25T14:03:52.455Z,100403.00
2023-05-25T14:05:26.231Z,100396.00
2023-05-25T14:07:01.976Z,100390.00
2023-05-25T14:08:35.510Z,100394.00
2023-05-25T14:10:10.049Z,100395.00
2023-05-25T14:11:43.929Z,100396.00
2023-05-25T14:13:18.344Z,100386.00
2023-05-25T14:14:51.731Z,100382.00
2023-05-25T14:16:25.057Z,100386.00
2023-05-25T14:17:58.367Z,100390.00
2023-05-25T14:19:32.868Z,100394.00
2023-05-25T14:21:06.247Z,100385.00
2023-05-25T14:22:40.881Z,100393.00
2023-05-25T14:24:14.296Z,100391.00
2023-05-25T14:25:48.692Z,100391.00
2023-05-25T14:27:22.199Z,100383.00
2023-05-25T14:28:56.173Z,100384.00
2023-05-25T14:30:29.577Z,100383.00
2023-05-25T14:32:03.073Z,100392.00
2023-05-25T14:33:36.576Z,100386.00
2023-05-25T14:35:10.889Z,100387.00
2023-05-25T14:36:44.182Z,100393.00
2023-05-25T14:38:18.841Z,100390.00
2023-05-25T14:39:52.107Z,100386.00
2023-05-25T14:41:25.951Z,100378.00
2023-05-25T14:42:59.258Z,100396.00
2023-05-25T14:44:32.489Z,100385.00
2023-05-25T14:46:07.363Z,100381.00
2023-05-25T14:47:41.073Z,100387.00
2023-05-25T14:49:14.581Z,100391.00
2023-05-25T14:50:47.917Z,100379.00
2023-05-25T14:52:21.175Z,100378.00
2023-05-25T14:54:00.169Z,100370.00
2023-05-25T14:55:38.524Z,100381.00
2023-05-25T14:57:12.392Z,100386.00
2023-05-25T14:58:45.848Z,100386.00
2023-05-25T15:00:20.185Z,100379.00
2023-05-25T15:01:53.483Z,100378.00
2023-05-25T15:03:27.074Z,100386.00
2023-05-25T15:05:00.360Z,100380.00
2023-05-25T15:06:33.742Z,100381.00
2023-05-25T15:08:07.027Z,100377.00
2023-05-25T15:09:42.298Z,100385.00
2023-05-25T15:11:15.571Z,100374.00
2023-05-25T15:12:49.079Z,100384.00
2023-05-25T15:14:22.352Z,100378.00
2023-05-25T15:15:57.792Z,100381.00
2023-05-25T15:17:31.896Z,100379.00
2023-05-25T15:19:05.383Z,100385.00
2023-05-25T15:20:39.099Z,100381.00
2023-05-25T15:22:12.932Z,100388.00
2023-05-25T15:23:48.372Z,100389.00
2023-05-25T15:25:35.152Z,100380.00
2023-05-25T15:27:09.403Z,100388.00
2023-05-25T15:28:42.886Z,100376.00
2023-05-25T15:30:17.879Z,100383.00
2023-05-25T15:31:53.567Z,100374.00
2023-05-25T15:33:39.455Z,100375.00
2023-05-25T15:35:20.804Z,100382.00
2023-05-25T15:36:54.308Z,100368.00
2023-05-25T15:38:27.838Z,100374.00
2023-05-25T15:40:01.959Z,100370.00
2023-05-25T15:41:37.286Z,100374.00
2023-05-25T15:43:12.359Z,100371.00
2023-05-25T15:44:46.931Z,100377.00
2023-05-25T15:46:22.682Z,100360.00
2023-05-25T15:47:56.432Z,100367.00
2023-05-25T15:49:36.620Z,100360.00
2023-05-25T15:51:10.367Z,100346.00
2023-05-25T15:52:43.860Z,100362.00
2023-05-25T15:54:17.535Z,100353.00
2023-05-25T15:55:51.561Z,100338.00
2023-05-25T15:57:26.538Z,100348.00
2023-05-25T15:58:59.184Z,100362.00
2023-05-25T16:00:33.555Z,100363.00
2023-05-25T16:02:07.883Z,100362.00
2023-05-25T16:03:42.973Z,100363.00
2023-05-25T16:05:16.554Z,100374.00
2023-05-25T16:06:50.020Z,100367.00
2023-05-25T16:08:23.796Z,100358.00
2023-05-25T16:09:57.555Z,100363.00
2023-05-25T16:11:33.028Z,100358.00
2023-05-25T16:13:08.247Z,100356.00
2023-05-25T16:14:41.762Z,100366.00
2023-05-25T16:16:15.530Z,100362.00
2023-05-25T16:17:49.198Z,100372.00
2023-05-25T16:19:25.591Z,100370.00
2023-05-25T16:20:59.153Z,100364.00
2023-05-25T16:22:32.514Z,100372.00
2023-05-25T16:24:06.648Z,100366.00
2023-05-25T16:25:39.984Z,100370.00
2023-05-25T16:27:13.580Z,100358.00
2023-05-25T16:28:48.687Z,100360.00
2023-05-25T16:30:22.097Z,100358.00
2023-05-25T16:31:56.751Z,100362.00
2023-05-25T16:33:30.957Z,100361.00
2023-05-25T16:35:06.037Z,100352.00
2023-05-25T16:36:40.404Z,100360.00
2023-05-25T16:38:14.639Z,100338.00
2023-05-25T16:39:48.760Z,100353.00
2023-05-25T16:41:22.976Z,100336.00
2023-05-25T16:42:56.426Z,100349.00
2023-05-25T16:44:31.265Z,100349.00
2023-05-25T16:46:04.633Z,100350.00
2023-05-25T16:47:37.132Z,100353.00
2023-05-25T16:49:10.393Z,100357.00
2023-05-25T16:50:44.065Z,100351.00
2023-05-25T16:52:17.459Z,100349.00
2023-05-25T16:53:52.507Z,100361.00
2023-05-25T16:55:27.453Z,100356.00
2023-05-25T16:57:01.690Z,100354.00
2023-05-25T16:58:35.114Z,100359.00
2023-05-25T17:00:12.085Z,100357.00
2023-05-25T17:01:45.385Z,100347.00
2023-05-25T17:03:19.012Z,100362.00
2023-05-25T17:04:52.629Z,100350.00
2023-05-25T17:06:26.194Z,100340.00
2023-05-25T17:08:00.132Z,100352.00
2023-05-25T17:09:33.727Z,100343.00
2023-05-25T17:11:07.464Z,100343.00
2023-05-25T17:12:41.276Z,100347.00
2023-05-25T17:14:14.683Z,100348.00
2023-05-25T17:15:50.197Z,100347.00
2023-05-25T17:17:24.996Z,100340.00
2023-05-25T17:18:59.960Z,100347.00
2023-05-25T17:20:33.299Z,100326.00
2023-05-25T17:22:07.122Z,100343.00
2023-05-25T17:23:41.498Z,100340.00
2023-05-25T17:25:15.080Z,100343.00
2023-05-25T17:26:50.129Z,100338.00
2023-05-25T17:28:23.799Z,100335.00
2023-05-25T17:29:57.241Z,100340.00
2023-05-25T17:31:32.521Z,100341.00
2023-05-25T17:33:06.699Z,100336.00
2023-05-25T17:34:40.407Z,100347.00
2023-05-25T17:36:17.074Z,100345.00
2023-05-25T17:37:50.977Z,100351.00
2023-05-25T17:39:24.608Z,100353.00
2023-05-25T17:41:03.344Z,100343.00
2023-05-25T17:42:37.064Z,100338.00
2023-05-25T17:44:10.754Z,100346.00
2023-05-25T17:45:44.624Z,100335.00
2023-05-25T17:47:20.020Z,100357.00
2023-05-25T17:48:53.492Z,100347.00
2023-05-25T17:50:30.584Z,100351.00
2023-05-25T17:52:04.626Z,100344.00
2023-05-25T17:53:38.295Z,100340.00
2023-05-25T17:55:11.982Z,100360.00
2023-05-25T17:56:45.882Z,100349.00
2023-05-25T17:58:20.010Z,100346.00
2023-05-25T17:59:53.940Z,100348.00
2023-05-25T18:01:27.647Z,100357.00
2023-05-25T18:03:03.401Z,100365.00
2023-05-25T18:04:37.108Z,100362.00
2023-05-25T18:06:11.244Z,100364.00
2023-05-25T18:07:44.748Z,100364.00
2023-05-25T18:09:18.488Z,100363.00
2023-05-25T18:10:52.925Z,100342.00
2023-05-25T18:12:27.489Z,100349.00